createdAt,value
2019-02-08T00:01:36.552Z,95133.28
2019-02-08T00:04:06.618Z,95127.56
2019-02-08T00:06:36.162Z,95134.20
2019-02-08T00:09:09.611Z,95131.56
2019-02-08T00:11:39.163Z,95133.89
2019-02-08T00:14:08.943Z,95143.57
2019-02-08T00:16:38.372Z,95135.33
2019-02-08T00:19:07.906Z,95130.86
2019-02-08T00:21:37.426Z,95128.44
2019-02-08T00:24:06.930Z,95118.25
2019-02-08T00:26:36.462Z,95125.20
2019-02-08T00:29:06.806Z,95123.43
2019-02-08T00:31:36.270Z,95122.64
2019-02-08T00:34:06.255Z,95127.12
2019-02-08T00:36:35.791Z,95129.29
2019-02-08T00:39:10.439Z,95124.95
2019-02-08T00:41:39.923Z,95126.39
2019-02-08T00:44:09.596Z,95118.00
2019-02-08T00:46:39.116Z,95121.69
2019-02-08T00:49:08.656Z,95126.84
2019-02-08T00:51:38.176Z,95127.59
2019-02-08T00:54:07.673Z,95121.07
2019-02-08T00:56:37.223Z,95121.41
2019-02-08T00:59:07.104Z,95116.51
2019-02-08T01:01:36.618Z,95112.96
2019-02-08T01:04:06.920Z,95114.57
2019-02-08T01:06:36.631Z,95110.37
2019-02-08T01:09:09.539Z,95104.38
2019-02-08T01:11:39.146Z,95109.25
2019-02-08T01:14:09.203Z,95111.16
2019-02-08T01:16:38.739Z,95107.95
2019-02-08T01:19:08.218Z,95113.81
2019-02-08T01:21:37.751Z,95109.89
2019-02-08T01:24:07.375Z,95110.85
2019-02-08T01:26:36.881Z,95114.67
2019-02-08T01:29:06.608Z,95112.56
2019-02-08T01:31:36.167Z,95105.05
2019-02-08T01:34:05.760Z,95107.59
2019-02-08T01:36:35.265Z,95098.75
2019-02-08T01:39:08.024Z,95105.65
2019-02-08T01:41:37.520Z,95107.28
2019-02-08T01:44:07.149Z,95098.61
2019-02-08T01:46:36.633Z,95106.23
2019-02-08T01:49:06.107Z,95098.95
2019-02-08T01:51:35.755Z,95095.91
2019-02-08T01:54:05.481Z,95096.86
2019-02-08T01:56:35.028Z,95101.77
2019-02-08T01:59:04.731Z,95098.02
2019-02-08T02:01:34.341Z,95095.78
2019-02-08T02:04:03.942Z,95100.47
2019-02-08T02:06:33.879Z,95101.56
2019-02-08T02:09:04.247Z,95106.38
2019-02-08T02:11:33.828Z,95100.13
2019-02-08T02:14:03.387Z,95105.51
2019-02-08T02:16:32.859Z,95107.90
2019-02-08T02:19:02.311Z,95108.48
2019-02-08T02:21:31.800Z,95104.07
2019-02-08T02:24:01.615Z,95100.80
2019-02-08T02:26:31.316Z,95097.23
2019-02-08T02:29:00.826Z,95101.14
2019-02-08T02:31:30.362Z,95095.83
2019-02-08T02:33:59.893Z,95093.43
2019-02-08T02:36:29.425Z,95085.13
2019-02-08T02:38:59.006Z,95090.84
2019-02-08T02:41:30.241Z,95081.12
2019-02-08T02:43:59.799Z,95078.52
2019-02-08T02:46:29.355Z,95074.63
2019-02-08T02:48:58.873Z,95082.83
2019-02-08T02:51:28.388Z,95084.59
2019-02-08T02:54:04.701Z,95086.70
2019-02-08T02:56:29.100Z,95092.08
2019-02-08T02:58:58.643Z,95091.13
2019-02-08T03:01:28.140Z,95079.11
2019-02-08T03:03:57.603Z,95076.34
2019-02-08T03:06:27.120Z,95078.77
2019-02-08T03:08:56.556Z,95074.83
2019-02-08T03:11:26.030Z,95071.77
2019-02-08T03:13:55.600Z,95067.60
2019-02-08T03:16:25.134Z,95068.00
2019-02-08T03:18:54.678Z,95064.06
2019-02-08T03:21:24.150Z,95056.30
2019-02-08T03:23:53.578Z,95053.90
2019-02-08T03:26:23.247Z,95052.48
2019-02-08T03:28:52.750Z,95047.11
2019-02-08T03:31:22.277Z,95049.09
2019-02-08T03:33:51.758Z,95053.42
2019-02-08T03:36:21.337Z,95051.80
2019-02-08T03:38:50.781Z,95038.56
2019-02-08T03:41:20.320Z,95036.18
2019-02-08T03:43:49.857Z,95036.77
2019-02-08T03:46:19.398Z,95038.44
2019-02-08T03:48:48.952Z,95036.00
2019-02-08T03:51:18.467Z,95034.18
2019-02-08T03:53:47.964Z,95033.59
2019-02-08T03:56:17.491Z,95034.94
2019-02-08T03:58:46.976Z,95030.25
2019-02-08T04:01:16.518Z,95034.63
2019-02-08T04:03:46.161Z,95027.88
2019-02-08T04:06:15.696Z,95027.69
2019-02-08T04:08:45.334Z,95031.06
2019-02-08T04:11:15.045Z,95025.55
2019-02-08T04:13:44.561Z,95026.14
2019-02-08T04:16:14.094Z,95026.14
2019-02-08T04:18:43.646Z,95022.48
2019-02-08T04:21:13.162Z,95024.34
2019-02-08T04:23:42.729Z,95019.69
2019-02-08T04:26:12.247Z,95012.75
2019-02-08T04:28:41.739Z,95013.78
2019-02-08T04:31:11.273Z,95026.30
2019-02-08T04:33:40.904Z,95022.03
2019-02-08T04:36:10.450Z,95025.48
2019-02-08T04:38:40.007Z,95028.70
2019-02-08T04:41:09.540Z,95026.87
2019-02-08T04:43:39.115Z,95034.02
2019-02-08T04:46:08.620Z,95038.15
2019-02-08T04:48:38.176Z,95044.28
2019-02-08T04:51:07.694Z,95040.64
2019-02-08T04:53:37.522Z,95041.66
2019-02-08T04:56:07.029Z,95044.97
2019-02-08T04:58:36.507Z,95043.03
2019-02-08T05:01:06.086Z,95042.94
2019-02-08T05:03:35.704Z,95045.47
2019-02-08T05:06:05.482Z,95045.19
2019-02-08T05:08:34.992Z,95040.69
2019-02-08T05:11:04.641Z,95045.27
2019-02-08T05:13:34.173Z,95043.42
2019-02-08T05:16:03.840Z,95042.41
2019-02-08T05:18:33.385Z,95050.52
2019-02-08T05:21:02.906Z,95057.41
2019-02-08T05:23:32.475Z,95059.70
2019-02-08T05:26:01.985Z,95066.53
2019-02-08T05:28:31.530Z,95068.98
2019-02-08T05:31:01.041Z,95069.99
2019-02-08T05:33:30.650Z,95072.05
2019-02-08T05:36:00.197Z,95076.24
2019-02-08T05:38:29.713Z,95073.20
2019-02-08T05:40:59.186Z,95075.98
2019-02-08T05:43:28.690Z,95078.58
2019-02-08T05:45:58.263Z,95080.73
2019-02-08T05:48:27.771Z,95085.77
2019-02-08T05:50:57.258Z,95079.78
2019-02-08T05:53:27.052Z,95080.97
2019-02-08T05:55:56.559Z,95084.04
2019-02-08T05:58:26.140Z,95081.79
2019-02-08T06:00:58.004Z,95080.09
2019-02-08T06:03:27.788Z,95085.30
2019-02-08T06:05:57.355Z,95082.25
2019-02-08T06:08:26.871Z,95079.08
2019-02-08T06:10:56.524Z,95074.63
2019-02-08T06:13:26.028Z,95081.38
2019-02-08T06:15:55.593Z,95074.94
2019-02-08T06:18:25.116Z,95075.68
2019-02-08T06:20:54.803Z,95087.70
2019-02-08T06:23:24.359Z,95086.12
2019-02-08T06:25:53.933Z,95084.97
2019-02-08T06:28:23.490Z,95091.72
2019-02-08T06:30:52.967Z,95101.42
2019-02-08T06:33:22.520Z,95100.92
2019-02-08T06:35:52.043Z,95099.42
2019-02-08T06:38:21.642Z,95103.70
2019-02-08T06:40:51.139Z,95104.69
2019-02-08T06:43:20.638Z,95098.55
2019-02-08T06:45:50.153Z,95100.86
2019-02-08T06:48:19.675Z,95093.09
2019-02-08T06:50:49.268Z,95090.95
2019-02-08T06:53:18.788Z,95094.78
2019-02-08T06:55:53.673Z,95092.87
2019-02-08T06:58:38.981Z,95089.86
2019-02-08T07:01:31.225Z,95098.13
2019-02-08T07:04:21.493Z,95096.11
2019-02-08T07:07:13.098Z,95092.30
2019-02-08T07:10:04.376Z,95090.87
2019-02-08T07:13:01.976Z,95092.22
2019-02-08T07:15:48.113Z,95091.23
2019-02-08T07:18:30.370Z,95088.81
2019-02-08T07:21:18.058Z,95096.42
2019-02-08T07:24:09.355Z,95103.23
2019-02-08T07:26:57.827Z,95098.55
2019-02-08T07:29:37.043Z,95101.34
2019-02-08T07:32:24.730Z,95099.70
2019-02-08T07:35:12.216Z,95106.41
2019-02-08T07:38:00.247Z,95107.70
2019-02-08T07:40:46.033Z,95114.91
2019-02-08T07:43:40.453Z,95119.66
2019-02-08T07:46:24.953Z,95117.61
2019-02-08T07:49:07.101Z,95124.11
2019-02-08T07:51:55.713Z,95124.12
2019-02-08T07:54:36.211Z,95121.09
2019-02-08T07:57:23.587Z,95129.43
2019-02-08T08:00:15.077Z,95124.47
2019-02-08T08:03:02.785Z,95124.36
2019-02-08T08:05:54.248Z,95128.30
2019-02-08T08:08:45.664Z,95127.88
2019-02-08T08:11:30.813Z,95132.38
2019-02-08T08:14:25.851Z,95132.84
2019-02-08T08:17:17.359Z,95128.75
2019-02-08T08:20:25.445Z,95130.45
2019-02-08T08:23:06.709Z,95127.34
2019-02-08T08:26:08.744Z,95127.73
2019-02-08T08:28:57.253Z,95138.37
2019-02-08T08:31:46.774Z,95140.04
2019-02-08T08:34:46.529Z,95136.39
2019-02-08T08:37:40.737Z,95126.09
2019-02-08T08:41:00.336Z,95138.37
2019-02-08T08:43:59.878Z,95136.08
2019-02-08T08:47:01.872Z,95136.03
2019-02-08T08:50:01.697Z,95134.12
2019-02-08T08:53:00.652Z,95131.56
2019-02-08T08:56:10.027Z,95131.66
2019-02-08T08:59:29.278Z,95136.52
2019-02-08T09:02:26.266Z,95134.51
2019-02-08T09:05:46.602Z,95145.31
2019-02-08T09:08:51.116Z,95150.55
2019-02-08T09:12:34.863Z,95156.16
2019-02-08T09:15:35.316Z,95159.38
2019-02-08T09:18:41.619Z,95164.73
2019-02-08T09:22:04.026Z,95159.15
2019-02-08T09:25:05.072Z,95159.15
2019-02-08T09:27:58.242Z,95158.33
2019-02-08T09:31:04.770Z,95158.86
2019-02-08T09:34:00.386Z,95151.89
2019-02-08T09:37:07.948Z,95154.10
2019-02-08T09:39:54.397Z,95153.63
2019-02-08T09:43:15.860Z,95152.70
2019-02-08T09:46:05.940Z,95153.67
2019-02-08T09:49:10.960Z,95149.45
2019-02-08T09:52:24.942Z,95153.34
2019-02-08T09:55:30.363Z,95153.49
2019-02-08T09:58:52.023Z,95152.09
2019-02-08T10:01:56.780Z,95144.02
2019-02-08T10:05:03.612Z,95143.49
2019-02-08T10:08:00.152Z,95142.09
2019-02-08T10:11:06.217Z,95142.72
2019-02-08T10:14:18.719Z,95145.17
2019-02-08T10:17:17.550Z,95144.98
2019-02-08T10:20:30.179Z,95140.61
2019-02-08T10:23:55.741Z,95146.56
2019-02-08T10:27:08.468Z,95143.69
2019-02-08T10:30:20.936Z,95149.50
2019-02-08T10:33:25.422Z,95152.23
2019-02-08T10:36:38.647Z,95149.16
2019-02-08T10:40:03.755Z,95150.74
2019-02-08T10:43:23.335Z,95153.19
2019-02-08T10:46:35.577Z,95151.61
2019-02-08T10:49:47.782Z,95151.75
2019-02-08T10:52:54.356Z,95143.38
2019-02-08T10:56:15.048Z,95144.42
2019-02-08T10:59:20.550Z,95141.55
2019-02-08T11:02:26.698Z,95138.38
2019-02-08T11:05:36.096Z,95139.41
2019-02-08T11:08:56.050Z,95138.83
2019-02-08T11:12:21.244Z,95132.19
2019-02-08T11:15:50.004Z,95131.61
2019-02-08T11:18:53.728Z,95128.45
2019-02-08T11:21:23.253Z,95129.20
2019-02-08T11:23:52.815Z,95130.20
2019-02-08T11:26:24.478Z,95125.06
2019-02-08T11:28:53.625Z,95124.73
2019-02-08T11:31:23.168Z,95124.47
2019-02-08T11:33:52.726Z,95127.40
2019-02-08T11:36:22.269Z,95121.20
2019-02-08T11:38:51.851Z,95122.39
2019-02-08T11:41:21.508Z,95124.53
2019-02-08T11:43:51.031Z,95120.61
2019-02-08T11:46:20.551Z,95123.53
2019-02-08T11:48:50.116Z,95121.84
2019-02-08T11:51:19.628Z,95123.80
2019-02-08T11:53:49.266Z,95122.17
2019-02-08T11:56:18.886Z,95125.09
2019-02-08T11:58:48.432Z,95126.73
2019-02-08T12:01:17.980Z,95119.27
2019-02-08T12:03:47.580Z,95126.02
2019-02-08T12:06:17.053Z,95121.50
2019-02-08T12:08:46.657Z,95127.66
2019-02-08T12:11:16.175Z,95123.28
2019-02-08T12:13:45.735Z,95117.79
2019-02-08T12:16:15.278Z,95113.75
2019-02-08T12:18:44.843Z,95116.34
2019-02-08T12:21:14.802Z,95114.20
2019-02-08T12:23:44.366Z,95115.16
2019-02-08T12:26:13.928Z,95115.61
2019-02-08T12:28:43.809Z,95116.09
2019-02-08T12:31:13.457Z,95118.12
2019-02-08T12:33:42.939Z,95110.67
2019-02-08T12:36:12.456Z,95114.94
2019-02-08T12:38:41.985Z,95115.13
2019-02-08T12:41:12.981Z,95113.98
2019-02-08T12:43:42.594Z,95113.98
2019-02-08T12:46:12.219Z,95118.20
2019-02-08T12:48:41.755Z,95116.41
2019-02-08T12:51:11.288Z,95115.61
2019-02-08T12:53:40.876Z,95110.38
2019-02-08T12:56:10.485Z,95114.98
2019-02-08T12:58:40.035Z,95115.98
2019-02-08T13:01:09.570Z,95112.75
2019-02-08T13:03:39.174Z,95115.83
2019-02-08T13:06:09.147Z,95117.42
2019-02-08T13:08:38.730Z,95120.12
2019-02-08T13:11:08.248Z,95116.90
2019-02-08T13:13:37.740Z,95115.94
2019-02-08T13:16:07.417Z,95118.05
2019-02-08T13:18:37.006Z,95120.75
2019-02-08T13:21:06.756Z,95114.45
2019-02-08T13:23:36.300Z,95119.45
2019-02-08T13:26:05.898Z,95125.19
2019-02-08T13:28:35.412Z,95123.84
2019-02-08T13:31:04.981Z,95123.93
2019-02-08T13:33:34.562Z,95122.20
2019-02-08T13:36:06.379Z,95131.71
2019-02-08T13:38:35.971Z,95127.30
2019-02-08T13:41:05.504Z,95121.86
2019-02-08T13:43:35.056Z,95129.85
2019-02-08T13:46:04.803Z,95124.52
2019-02-08T13:48:34.367Z,95119.95
2019-02-08T13:51:04.097Z,95118.02
2019-02-08T13:53:33.619Z,95117.25
2019-02-08T13:56:03.080Z,95114.04
2019-02-08T13:58:32.603Z,95117.44
2019-02-08T14:01:02.101Z,95114.80
2019-02-08T14:03:31.594Z,95114.04
2019-02-08T14:06:01.205Z,95110.87
2019-02-08T14:08:30.690Z,95109.99
2019-02-08T14:11:00.255Z,95114.29
2019-02-08T14:13:29.767Z,95113.59
2019-02-08T14:15:59.297Z,95112.45
2019-02-08T14:18:28.882Z,95111.69
2019-02-08T14:20:58.469Z,95115.14
2019-02-08T14:23:28.001Z,95116.16
2019-02-08T14:25:57.518Z,95112.41
2019-02-08T14:28:27.047Z,95116.97
2019-02-08T14:30:56.641Z,95126.19
2019-02-08T14:33:26.247Z,95125.32
2019-02-08T14:35:56.079Z,95125.09
2019-02-08T14:38:25.747Z,95123.16
2019-02-08T14:40:55.361Z,95128.55
2019-02-08T14:43:24.903Z,95132.47
2019-02-08T14:45:54.411Z,95136.22
2019-02-08T14:48:23.946Z,95135.34
2019-02-08T14:50:53.471Z,95136.55
2019-02-08T14:53:23.002Z,95136.08
2019-02-08T14:55:52.500Z,95134.02
2019-02-08T14:58:22.267Z,95135.81
2019-02-08T15:00:51.724Z,95130.73
2019-02-08T15:03:21.184Z,95131.62
2019-02-08T15:05:50.704Z,95132.66
2019-02-08T15:08:20.256Z,95135.10
2019-02-08T15:10:51.093Z,95129.97
2019-02-08T15:13:20.600Z,95140.86
2019-02-08T15:15:50.190Z,95134.56
2019-02-08T15:18:19.729Z,95142.73
2019-02-08T15:20:49.365Z,95134.53
2019-02-08T15:23:18.903Z,95137.18
2019-02-08T15:25:48.590Z,95134.10
2019-02-08T15:28:18.093Z,95132.09
2019-02-08T15:30:47.600Z,95137.33
2019-02-08T15:33:17.173Z,95136.80
2019-02-08T15:35:46.718Z,95132.81
2019-02-08T15:38:16.284Z,95132.47
2019-02-08T15:40:48.385Z,95136.75
2019-02-08T15:43:19.609Z,95136.47
2019-02-08T15:45:54.876Z,95140.41
2019-02-08T15:48:24.481Z,95140.27
2019-02-08T15:50:54.180Z,95147.91
2019-02-08T15:53:24.240Z,95143.73
2019-02-08T15:55:57.550Z,95145.94
2019-02-08T15:58:27.200Z,95152.03
2019-02-08T16:00:56.954Z,95150.11
2019-02-08T16:03:26.476Z,95145.74
2019-02-08T16:05:56.066Z,95150.73
2019-02-08T16:08:25.583Z,95156.02
2019-02-08T16:10:55.246Z,95150.73
2019-02-08T16:13:24.829Z,95144.88
2019-02-08T16:15:54.484Z,95153.00
2019-02-08T16:18:23.965Z,95154.63
2019-02-08T16:20:53.551Z,95158.81
2019-02-08T16:23:23.079Z,95164.74
2019-02-08T16:25:52.641Z,95165.06
2019-02-08T16:28:22.193Z,95166.34
2019-02-08T16:30:51.722Z,95171.81
2019-02-08T16:33:21.286Z,95165.53
2019-02-08T16:35:50.915Z,95171.59
2019-02-08T16:38:20.591Z,95172.88
2019-02-08T16:40:50.163Z,95174.00
2019-02-08T16:43:19.676Z,95177.71
2019-02-08T16:45:49.225Z,95178.13
2019-02-08T16:48:20.228Z,95177.77
2019-02-08T16:50:49.868Z,95180.13
2019-02-08T16:53:19.413Z,95183.14
2019-02-08T16:55:49.261Z,95175.09
2019-02-08T16:58:18.792Z,95179.06
2019-02-08T17:00:48.414Z,95181.54
2019-02-08T17:03:17.960Z,95188.50
2019-02-08T17:05:47.494Z,95178.81
2019-02-08T17:08:17.084Z,95180.78
2019-02-08T17:10:46.714Z,95183.73
2019-02-08T17:13:16.335Z,95180.84
2019-02-08T17:15:45.956Z,95185.69
2019-02-08T17:18:15.548Z,95190.39
2019-02-08T17:20:47.340Z,95193.14
2019-02-08T17:23:16.971Z,95193.40
2019-02-08T17:25:46.521Z,95196.08
2019-02-08T17:28:16.121Z,95199.70
2019-02-08T17:30:45.640Z,95205.02
2019-02-08T17:33:15.188Z,95205.36
2019-02-08T17:35:44.764Z,95198.83
2019-02-08T17:38:14.280Z,95198.52
2019-02-08T17:40:45.472Z,95203.84
2019-02-08T17:43:15.030Z,95203.45
2019-02-08T17:45:44.771Z,95203.11
2019-02-08T17:48:15.523Z,95208.95
2019-02-08T17:50:45.372Z,95208.27
2019-02-08T17:53:14.891Z,95213.59
2019-02-08T17:55:44.631Z,95212.16
2019-02-08T17:58:14.343Z,95214.69
2019-02-08T18:00:58.657Z,95218.30
2019-02-08T18:03:28.329Z,95213.05
2019-02-08T18:05:57.832Z,95219.31
2019-02-08T18:08:27.614Z,95226.09
2019-02-08T18:10:57.219Z,95228.88
2019-02-08T18:13:26.961Z,95228.88
2019-02-08T18:15:56.547Z,95228.86
2019-02-08T18:18:27.013Z,95229.56
2019-02-08T18:21:08.964Z,95232.52
2019-02-08T18:23:38.536Z,95229.84
2019-02-08T18:26:08.298Z,95232.23
2019-02-08T18:28:37.885Z,95232.72
2019-02-08T18:31:07.496Z,95235.22
2019-02-08T18:33:37.020Z,95239.65
2019-02-08T18:36:06.600Z,95232.86
2019-02-08T18:38:36.234Z,95235.95
2019-02-08T18:41:05.834Z,95232.58
2019-02-08T18:43:35.366Z,95237.34
2019-02-08T18:46:05.159Z,95235.02
2019-02-08T18:48:34.731Z,95236.66
2019-02-08T18:51:04.577Z,95234.95
2019-02-08T18:53:34.260Z,95237.81
2019-02-08T18:56:04.033Z,95233.45
2019-02-08T18:58:33.556Z,95239.00
2019-02-08T19:01:03.277Z,95240.63
2019-02-08T19:03:32.901Z,95241.37
2019-02-08T19:06:02.458Z,95244.30
2019-02-08T19:08:32.112Z,95245.90
2019-02-08T19:11:01.699Z,95250.80
2019-02-08T19:13:31.351Z,95250.80
2019-02-08T19:16:00.911Z,95253.67
2019-02-08T19:18:30.486Z,95247.51
2019-02-08T19:21:00.164Z,95247.37
2019-02-08T19:23:29.712Z,95248.80
2019-02-08T19:25:59.228Z,95254.35
2019-02-08T19:28:28.762Z,95255.37
2019-02-08T19:30:58.506Z,95253.73
2019-02-08T19:33:28.119Z,95261.51
2019-02-08T19:35:57.679Z,95267.03
2019-02-08T19:38:27.325Z,95269.91
2019-02-08T19:40:56.927Z,95264.97
2019-02-08T19:43:26.520Z,95267.23
2019-02-08T19:45:56.197Z,95272.38
2019-02-08T19:48:25.808Z,95277.73
2019-02-08T19:50:55.458Z,95272.16
2019-02-08T19:53:25.038Z,95276.53
2019-02-08T19:55:54.740Z,95278.30
2019-02-08T19:58:24.344Z,95275.34
2019-02-08T20:00:53.955Z,95279.52
2019-02-08T20:03:23.567Z,95275.73
2019-02-08T20:05:53.179Z,95280.38
2019-02-08T20:08:22.708Z,95285.80
2019-02-08T20:10:52.275Z,95275.50
2019-02-08T20:13:21.842Z,95284.84
2019-02-08T20:15:51.342Z,95280.39
2019-02-08T20:18:20.868Z,95286.00
2019-02-08T20:20:50.411Z,95285.89
2019-02-08T20:23:19.936Z,95283.98
2019-02-08T20:25:49.439Z,95286.85
2019-02-08T20:28:19.082Z,95285.12
2019-02-08T20:30:48.680Z,95287.16
2019-02-08T20:33:18.211Z,95293.58
2019-02-08T20:35:47.815Z,95284.56
2019-02-08T20:38:17.363Z,95284.40
2019-02-08T20:40:49.167Z,95281.78
2019-02-08T20:43:18.844Z,95285.70
2019-02-08T20:45:48.507Z,95283.78
2019-02-08T20:48:20.883Z,95287.87
2019-02-08T20:50:50.575Z,95282.78
2019-02-08T20:53:20.330Z,95281.00
2019-02-08T20:55:50.024Z,95279.51
2019-02-08T20:58:19.673Z,95280.16
2019-02-08T21:00:52.002Z,95284.35
2019-02-08T21:03:22.881Z,95281.82
2019-02-08T21:05:52.572Z,95280.16
2019-02-08T21:08:23.006Z,95274.85
2019-02-08T21:10:52.683Z,95274.89
2019-02-08T21:13:22.255Z,95276.36
2019-02-08T21:15:51.739Z,95277.34
2019-02-08T21:18:21.305Z,95275.55
2019-02-08T21:20:50.833Z,95280.86
2019-02-08T21:23:20.339Z,95275.95
2019-02-08T21:25:52.137Z,95277.25
2019-02-08T21:28:21.181Z,95272.81
2019-02-08T21:30:50.914Z,95281.64
2019-02-08T21:33:20.631Z,95282.80
2019-02-08T21:35:50.145Z,95285.22
2019-02-08T21:38:20.095Z,95282.25
2019-02-08T21:40:49.769Z,95284.84
2019-02-08T21:43:19.331Z,95286.68
2019-02-08T21:45:48.974Z,95285.86
2019-02-08T21:48:18.536Z,95288.30
2019-02-08T21:50:48.130Z,95293.34
2019-02-08T21:53:17.632Z,95294.97
2019-02-08T21:55:47.230Z,95296.68
2019-02-08T21:58:16.721Z,95302.30
2019-02-08T22:00:46.275Z,95298.15
2019-02-08T22:03:16.303Z,95300.47
2019-02-08T22:05:48.751Z,95302.17
2019-02-08T22:08:18.387Z,95295.38
2019-02-08T22:10:47.960Z,95300.23
2019-02-08T22:13:17.491Z,95300.73
2019-02-08T22:15:47.326Z,95298.22
2019-02-08T22:18:16.906Z,95301.83
2019-02-08T22:20:46.459Z,95298.45
2019-02-08T22:23:16.155Z,95300.53
2019-02-08T22:25:45.752Z,95300.33
2019-02-08T22:28:15.296Z,95305.47
2019-02-08T22:30:45.046Z,95310.66
2019-02-08T22:33:14.545Z,95307.48
2019-02-08T22:35:45.893Z,95306.36
2019-02-08T22:38:15.550Z,95302.20
2019-02-08T22:40:45.211Z,95296.30
2019-02-08T22:43:14.753Z,95297.39
2019-02-08T22:45:44.555Z,95303.94
2019-02-08T22:48:14.059Z,95299.03
2019-02-08T22:50:43.637Z,95301.59
2019-02-08T22:53:13.266Z,95304.11
2019-02-08T22:55:42.839Z,95305.27
2019-02-08T22:58:12.367Z,95303.67
2019-02-08T23:01:29.573Z,95304.63
2019-02-08T23:04:00.297Z,95307.21
2019-02-08T23:06:30.096Z,95307.11
2019-02-08T23:08:59.847Z,95306.63
2019-02-08T23:11:29.784Z,95301.92
2019-02-08T23:13:59.408Z,95311.38
2019-02-08T23:16:28.930Z,95302.80
2019-02-08T23:18:58.442Z,95304.70
2019-02-08T23:21:27.988Z,95305.14
2019-02-08T23:23:57.650Z,95296.55
2019-02-08T23:26:27.222Z,95297.75
2019-02-08T23:28:56.794Z,95295.03
2019-02-08T23:31:26.403Z,95287.56
2019-02-08T23:33:55.942Z,95296.28
2019-02-08T23:36:25.485Z,95300.03
2019-02-08T23:38:55.109Z,95303.25
2019-02-08T23:41:24.702Z,95304.77
2019-02-08T23:43:54.242Z,95301.75
2019-02-08T23:46:23.820Z,95299.12
2019-02-08T23:48:53.326Z,95301.51
2019-02-08T23:51:22.978Z,95293.08
2019-02-08T23:53:52.482Z,95298.59
2019-02-08T23:56:22.061Z,95293.02
2019-02-08T23:58:51.609Z,95292.00
